Terminal Aerodrome Forecast
Issued by NWS

Home | Current Version | Previous Version | Text Only | Print | Product List | Glossary On
Versions: 1 2 3 4 5 6 7 8 9 10 11 12 13 14 15 16 17 18 19 20
000
FTUS43 KMPX 280300 AAA
TAFAXN
TAF AMD
KAXN 280333Z 2804/2824 15013KT 1 1/2SM -SN SCT010 OVC028
      TEMPO 2804/2808 3/4SM -SN OVC010
     FM280800 14011KT 6SM -SN SCT006 OVC012
     FM281500 12007KT P6SM OVC015=

USA.gov is the U.S. government's official web portal to all federal, state and local government web resources and services.